sensor_id;sensor_type;location;lat;lon;timestamp;P1;durP1;ratioP1;P2;durP2;ratioP2
44850;SDS011;30583;48.714;9.386;2023-04-27T00:01:09;6.70;;;3.90;;
44850;SDS011;30583;48.714;9.386;2023-04-27T00:03:36;7.53;;;4.20;;
44850;SDS011;30583;48.714;9.386;2023-04-27T00:06:01;5.88;;;3.85;;
44850;SDS011;30583;48.714;9.386;2023-04-27T00:08:27;7.28;;;4.30;;
44850;SDS011;30583;48.714;9.386;2023-04-27T00:10:53;8.73;;;3.78;;
44850;SDS011;30583;48.714;9.386;2023-04-27T00:13:18;6.70;;;3.90;;
44850;SDS011;30583;48.714;9.386;2023-04-27T00:15:44;9.60;;;4.00;;
44850;SDS011;30583;48.714;9.386;2023-04-27T00:18:10;6.93;;;4.03;;
44850;SDS011;30583;48.714;9.386;2023-04-27T00:20:35;8.85;;;3.55;;
44850;SDS011;30583;48.714;9.386;2023-04-27T00:23:01;7.07;;;3.70;;
44850;SDS011;30583;48.714;9.386;2023-04-27T00:25:26;6.60;;;3.80;;
44850;SDS011;30583;48.714;9.386;2023-04-27T00:27:52;8.50;;;3.55;;
44850;SDS011;30583;48.714;9.386;2023-04-27T00:30:17;7.75;;;3.90;;
44850;SDS011;30583;48.714;9.386;2023-04-27T00:32:43;8.57;;;3.70;;
44850;SDS011;30583;48.714;9.386;2023-04-27T00:35:09;5.28;;;3.60;;
44850;SDS011;30583;48.714;9.386;2023-04-27T00:37:34;5.13;;;3.55;;
44850;SDS011;30583;48.714;9.386;2023-04-27T00:40:00;10.55;;;4.80;;
44850;SDS011;30583;48.714;9.386;2023-04-27T00:42:28;7.70;;;3.33;;
44850;SDS011;30583;48.714;9.386;2023-04-27T00:44:56;5.10;;;3.30;;
44850;SDS011;30583;48.714;9.386;2023-04-27T00:47:22;6.95;;;3.60;;
44850;SDS011;30583;48.714;9.386;2023-04-27T00:49:48;7.18;;;3.35;;
44850;SDS011;30583;48.714;9.386;2023-04-27T00:52:14;6.22;;;3.28;;
44850;SDS011;30583;48.714;9.386;2023-04-27T00:54:40;8.52;;;3.38;;
44850;SDS011;30583;48.714;9.386;2023-04-27T00:57:05;6.55;;;3.10;;
44850;SDS011;30583;48.714;9.386;2023-04-27T00:59:33;6.47;;;3.58;;
44850;SDS011;30583;48.714;9.386;2023-04-27T01:01:58;7.93;;;3.75;;
44850;SDS011;30583;48.714;9.386;2023-04-27T01:04:25;8.43;;;4.03;;
44850;SDS011;30583;48.714;9.386;2023-04-27T01:06:50;7.88;;;3.42;;
44850;SDS011;30583;48.714;9.386;2023-04-27T01:09:17;10.48;;;3.72;;
44850;SDS011;30583;48.714;9.386;2023-04-27T01:11:44;6.07;;;3.22;;
44850;SDS011;30583;48.714;9.386;2023-04-27T01:14:10;9.40;;;3.60;;
44850;SDS011;30583;48.714;9.386;2023-04-27T01:16:36;7.57;;;3.85;;
44850;SDS011;30583;48.714;9.386;2023-04-27T01:19:02;6.07;;;3.50;;
44850;SDS011;30583;48.714;9.386;2023-04-27T01:21:28;5.25;;;3.70;;
44850;SDS011;30583;48.714;9.386;2023-04-27T01:23:54;11.07;;;3.92;;
44850;SDS011;30583;48.714;9.386;2023-04-27T01:26:20;6.53;;;3.72;;
44850;SDS011;30583;48.714;9.386;2023-04-27T01:28:46;6.97;;;3.85;;
44850;SDS011;30583;48.714;9.386;2023-04-27T01:31:12;6.57;;;3.92;;
44850;SDS011;30583;48.714;9.386;2023-04-27T01:33:39;8.00;;;3.55;;
44850;SDS011;30583;48.714;9.386;2023-04-27T01:36:05;7.03;;;4.10;;
44850;SDS011;30583;48.714;9.386;2023-04-27T01:38:31;7.72;;;3.78;;
44850;SDS011;30583;48.714;9.386;2023-04-27T01:40:57;6.78;;;3.40;;
44850;SDS011;30583;48.714;9.386;2023-04-27T01:43:27;10.13;;;3.97;;
44850;SDS011;30583;48.714;9.386;2023-04-27T01:45:53;6.70;;;3.78;;
44850;SDS011;30583;48.714;9.386;2023-04-27T01:48:19;5.80;;;3.60;;
44850;SDS011;30583;48.714;9.386;2023-04-27T01:50:44;6.63;;;4.07;;
44850;SDS011;30583;48.714;9.386;2023-04-27T01:53:10;7.47;;;3.63;;
44850;SDS011;30583;48.714;9.386;2023-04-27T01:55:35;7.97;;;3.90;;
44850;SDS011;30583;48.714;9.386;2023-04-27T01:58:01;7.72;;;3.90;;
44850;SDS011;30583;48.714;9.386;2023-04-27T02:00:27;10.02;;;4.10;;
44850;SDS011;30583;48.714;9.386;2023-04-27T02:02:52;8.30;;;4.07;;
44850;SDS011;30583;48.714;9.386;2023-04-27T02:05:21;5.70;;;3.17;;
44850;SDS011;30583;48.714;9.386;2023-04-27T02:07:47;4.63;;;3.53;;
44850;SDS011;30583;48.714;9.386;2023-04-27T02:10:13;5.05;;;3.38;;
44850;SDS011;30583;48.714;9.386;2023-04-27T02:12:39;6.85;;;3.58;;
44850;SDS011;30583;48.714;9.386;2023-04-27T02:15:04;8.18;;;4.20;;
44850;SDS011;30583;48.714;9.386;2023-04-27T02:17:32;6.65;;;3.50;;
44850;SDS011;30583;48.714;9.386;2023-04-27T02:19:58;9.52;;;4.40;;
44850;SDS011;30583;48.714;9.386;2023-04-27T02:22:24;8.20;;;3.53;;
44850;SDS011;30583;48.714;9.386;2023-04-27T02:24:50;7.40;;;3.63;;
44850;SDS011;30583;48.714;9.386;2023-04-27T02:27:15;7.90;;;3.40;;
44850;SDS011;30583;48.714;9.386;2023-04-27T02:29:41;7.25;;;4.00;;
44850;SDS011;30583;48.714;9.386;2023-04-27T02:32:07;6.43;;;3.72;;
44850;SDS011;30583;48.714;9.386;2023-04-27T02:34:32;12.90;;;3.83;;
44850;SDS011;30583;48.714;9.386;2023-04-27T02:36:58;7.07;;;3.83;;
44850;SDS011;30583;48.714;9.386;2023-04-27T02:39:24;10.93;;;4.88;;
44850;SDS011;30583;48.714;9.386;2023-04-27T02:41:50;14.02;;;4.70;;
44850;SDS011;30583;48.714;9.386;2023-04-27T02:44:15;8.80;;;4.28;;
44850;SDS011;30583;48.714;9.386;2023-04-27T02:46:41;7.57;;;4.00;;
44850;SDS011;30583;48.714;9.386;2023-04-27T02:49:06;9.90;;;4.30;;
44850;SDS011;30583;48.714;9.386;2023-04-27T02:51:32;7.82;;;3.80;;
44850;SDS011;30583;48.714;9.386;2023-04-27T02:53:58;8.65;;;3.70;;
44850;SDS011;30583;48.714;9.386;2023-04-27T02:56:23;6.68;;;3.92;;
44850;SDS011;30583;48.714;9.386;2023-04-27T02:58:49;6.95;;;3.72;;
44850;SDS011;30583;48.714;9.386;2023-04-27T03:01:15;6.05;;;3.25;;
44850;SDS011;30583;48.714;9.386;2023-04-27T03:03:46;7.47;;;3.97;;
44850;SDS011;30583;48.714;9.386;2023-04-27T03:06:12;7.68;;;3.80;;
44850;SDS011;30583;48.714;9.386;2023-04-27T03:08:38;8.65;;;4.03;;
44850;SDS011;30583;48.714;9.386;2023-04-27T03:11:04;5.55;;;3.35;;
44850;SDS011;30583;48.714;9.386;2023-04-27T03:13:30;5.47;;;3.78;;
44850;SDS011;30583;48.714;9.386;2023-04-27T03:15:59;5.50;;;3.80;;
44850;SDS011;30583;48.714;9.386;2023-04-27T03:18:25;10.32;;;3.90;;
44850;SDS011;30583;48.714;9.386;2023-04-27T03:20:51;5.13;;;3.72;;
44850;SDS011;30583;48.714;9.386;2023-04-27T03:23:16;9.10;;;4.05;;
44850;SDS011;30583;48.714;9.386;2023-04-27T03:25:42;6.95;;;4.57;;
44850;SDS011;30583;48.714;9.386;2023-04-27T03:28:07;8.20;;;4.07;;
44850;SDS011;30583;48.714;9.386;2023-04-27T03:30:33;7.60;;;4.75;;
44850;SDS011;30583;48.714;9.386;2023-04-27T03:32:59;9.45;;;5.00;;
44850;SDS011;30583;48.714;9.386;2023-04-27T03:35:24;7.00;;;4.15;;
44850;SDS011;30583;48.714;9.386;2023-04-27T03:37:50;12.45;;;4.35;;
44850;SDS011;30583;48.714;9.386;2023-04-27T03:40:15;6.93;;;4.25;;
44850;SDS011;30583;48.714;9.386;2023-04-27T03:42:41;8.20;;;4.20;;
44850;SDS011;30583;48.714;9.386;2023-04-27T03:45:07;8.07;;;4.00;;
44850;SDS011;30583;48.714;9.386;2023-04-27T03:47:32;6.78;;;4.18;;
44850;SDS011;30583;48.714;9.386;2023-04-27T03:49:58;11.65;;;4.40;;
44850;SDS011;30583;48.714;9.386;2023-04-27T03:52:24;9.45;;;4.47;;
44850;SDS011;30583;48.714;9.386;2023-04-27T03:54:50;9.52;;;4.45;;
44850;SDS011;30583;48.714;9.386;2023-04-27T03:57:15;8.55;;;4.35;;
44850;SDS011;30583;48.714;9.386;2023-04-27T03:59:41;9.00;;;4.82;;
44850;SDS011;30583;48.714;9.386;2023-04-27T04:02:06;8.75;;;4.90;;
44850;SDS011;30583;48.714;9.386;2023-04-27T04:04:33;9.20;;;4.65;;
44850;SDS011;30583;48.714;9.386;2023-04-27T04:06:59;10.77;;;4.90;;
44850;SDS011;30583;48.714;9.386;2023-04-27T04:09:24;7.00;;;4.05;;
44850;SDS011;30583;48.714;9.386;2023-04-27T04:11:50;7.88;;;4.72;;
44850;SDS011;30583;48.714;9.386;2023-04-27T04:14:16;10.35;;;7.22;;
44850;SDS011;30583;48.714;9.386;2023-04-27T04:16:42;17.23;;;9.52;;
44850;SDS011;30583;48.714;9.386;2023-04-27T04:19:07;22.13;;;14.00;;
44850;SDS011;30583;48.714;9.386;2023-04-27T04:21:33;17.42;;;8.88;;
44850;SDS011;30583;48.714;9.386;2023-04-27T04:23:59;12.30;;;7.70;;
44850;SDS011;30583;48.714;9.386;2023-04-27T04:26:25;12.90;;;7.28;;
44850;SDS011;30583;48.714;9.386;2023-04-27T04:28:51;10.77;;;7.03;;
44850;SDS011;30583;48.714;9.386;2023-04-27T04:31:16;10.00;;;7.05;;
44850;SDS011;30583;48.714;9.386;2023-04-27T04:33:42;9.30;;;5.90;;
44850;SDS011;30583;48.714;9.386;2023-04-27T04:36:08;7.55;;;5.05;;
44850;SDS011;30583;48.714;9.386;2023-04-27T04:38:34;11.00;;;5.35;;
44850;SDS011;30583;48.714;9.386;2023-04-27T04:41:00;15.55;;;6.95;;
44850;SDS011;30583;48.714;9.386;2023-04-27T04:43:26;6.43;;;4.72;;
44850;SDS011;30583;48.714;9.386;2023-04-27T04:45:52;8.93;;;4.93;;
44850;SDS011;30583;48.714;9.386;2023-04-27T04:48:17;9.70;;;6.10;;
44850;SDS011;30583;48.714;9.386;2023-04-27T04:50:44;10.93;;;6.25;;
44850;SDS011;30583;48.714;9.386;2023-04-27T04:53:10;10.43;;;6.28;;
44850;SDS011;30583;48.714;9.386;2023-04-27T04:55:35;10.98;;;6.45;;
44850;SDS011;30583;48.714;9.386;2023-04-27T04:58:01;8.80;;;4.68;;
44850;SDS011;30583;48.714;9.386;2023-04-27T05:00:26;8.55;;;5.10;;
44850;SDS011;30583;48.714;9.386;2023-04-27T05:02:52;8.27;;;4.85;;
44850;SDS011;30583;48.714;9.386;2023-04-27T05:05:17;9.25;;;4.70;;
44850;SDS011;30583;48.714;9.386;2023-04-27T05:07:43;8.00;;;5.05;;
44850;SDS011;30583;48.714;9.386;2023-04-27T05:10:09;8.85;;;4.18;;
44850;SDS011;30583;48.714;9.386;2023-04-27T05:12:34;7.18;;;4.22;;
44850;SDS011;30583;48.714;9.386;2023-04-27T05:15:00;6.50;;;3.97;;
44850;SDS011;30583;48.714;9.386;2023-04-27T05:17:25;6.05;;;3.88;;
44850;SDS011;30583;48.714;9.386;2023-04-27T05:19:51;6.10;;;3.38;;
44850;SDS011;30583;48.714;9.386;2023-04-27T05:22:17;7.22;;;3.90;;
44850;SDS011;30583;48.714;9.386;2023-04-27T05:24:42;10.07;;;3.97;;
44850;SDS011;30583;48.714;9.386;2023-04-27T05:27:08;9.35;;;4.38;;
44850;SDS011;30583;48.714;9.386;2023-04-27T05:29:33;8.68;;;3.97;;
44850;SDS011;30583;48.714;9.386;2023-04-27T05:31:59;15.82;;;5.32;;
44850;SDS011;30583;48.714;9.386;2023-04-27T05:34:24;12.15;;;5.18;;
44850;SDS011;30583;48.714;9.386;2023-04-27T05:36:50;10.30;;;4.00;;
44850;SDS011;30583;48.714;9.386;2023-04-27T05:39:16;9.05;;;4.20;;
44850;SDS011;30583;48.714;9.386;2023-04-27T05:41:41;7.10;;;4.20;;
44850;SDS011;30583;48.714;9.386;2023-04-27T05:44:07;7.82;;;3.75;;
44850;SDS011;30583;48.714;9.386;2023-04-27T05:46:32;7.28;;;4.10;;
44850;SDS011;30583;48.714;9.386;2023-04-27T05:48:58;8.75;;;4.22;;
44850;SDS011;30583;48.714;9.386;2023-04-27T05:51:24;8.38;;;4.28;;
44850;SDS011;30583;48.714;9.386;2023-04-27T05:53:49;7.80;;;3.90;;
44850;SDS011;30583;48.714;9.386;2023-04-27T05:56:19;9.07;;;4.57;;
44850;SDS011;30583;48.714;9.386;2023-04-27T05:58:45;8.85;;;3.92;;
44850;SDS011;30583;48.714;9.386;2023-04-27T06:01:11;11.07;;;5.13;;
44850;SDS011;30583;48.714;9.386;2023-04-27T06:03:37;14.80;;;4.93;;
44850;SDS011;30583;48.714;9.386;2023-04-27T06:06:02;8.43;;;4.60;;
44850;SDS011;30583;48.714;9.386;2023-04-27T06:08:28;11.20;;;5.20;;
44850;SDS011;30583;48.714;9.386;2023-04-27T06:10:54;7.38;;;4.93;;
44850;SDS011;30583;48.714;9.386;2023-04-27T06:13:20;8.18;;;4.57;;
44850;SDS011;30583;48.714;9.386;2023-04-27T06:15:46;6.53;;;3.85;;
44850;SDS011;30583;48.714;9.386;2023-04-27T06:18:12;6.05;;;2.60;;
44850;SDS011;30583;48.714;9.386;2023-04-27T06:20:38;6.88;;;3.13;;
44850;SDS011;30583;48.714;9.386;2023-04-27T06:23:03;11.88;;;5.63;;
44850;SDS011;30583;48.714;9.386;2023-04-27T06:25:29;6.85;;;5.07;;
44850;SDS011;30583;48.714;9.386;2023-04-27T06:27:55;7.40;;;4.47;;
44850;SDS011;30583;48.714;9.386;2023-04-27T06:30:22;7.32;;;4.22;;
44850;SDS011;30583;48.714;9.386;2023-04-27T06:32:50;8.25;;;4.45;;
44850;SDS011;30583;48.714;9.386;2023-04-27T06:35:16;7.22;;;4.50;;
44850;SDS011;30583;48.714;9.386;2023-04-27T06:37:42;12.88;;;5.53;;
44850;SDS011;30583;48.714;9.386;2023-04-27T06:40:08;13.88;;;5.60;;
44850;SDS011;30583;48.714;9.386;2023-04-27T06:42:34;15.05;;;6.47;;
44850;SDS011;30583;48.714;9.386;2023-04-27T06:45:00;17.08;;;7.32;;
44850;SDS011;30583;48.714;9.386;2023-04-27T06:47:26;15.77;;;5.65;;
44850;SDS011;30583;48.714;9.386;2023-04-27T06:49:52;13.00;;;5.70;;
44850;SDS011;30583;48.714;9.386;2023-04-27T06:52:17;12.90;;;4.80;;
44850;SDS011;30583;48.714;9.386;2023-04-27T06:54:43;16.35;;;5.32;;
44850;SDS011;30583;48.714;9.386;2023-04-27T06:57:09;15.13;;;5.05;;
44850;SDS011;30583;48.714;9.386;2023-04-27T06:59:34;10.43;;;4.60;;
44850;SDS011;30583;48.714;9.386;2023-04-27T07:02:00;12.00;;;4.45;;
44850;SDS011;30583;48.714;9.386;2023-04-27T07:04:26;11.48;;;4.85;;
44850;SDS011;30583;48.714;9.386;2023-04-27T07:06:51;18.02;;;5.40;;
44850;SDS011;30583;48.714;9.386;2023-04-27T07:09:17;8.15;;;3.88;;
44850;SDS011;30583;48.714;9.386;2023-04-27T07:11:43;9.90;;;4.13;;
44850;SDS011;30583;48.714;9.386;2023-04-27T07:14:08;12.68;;;4.47;;
44850;SDS011;30583;48.714;9.386;2023-04-27T07:16:34;9.70;;;4.07;;
44850;SDS011;30583;48.714;9.386;2023-04-27T07:19:00;8.93;;;3.95;;
44850;SDS011;30583;48.714;9.386;2023-04-27T07:21:26;14.05;;;4.90;;
44850;SDS011;30583;48.714;9.386;2023-04-27T07:23:52;12.10;;;4.50;;
44850;SDS011;30583;48.714;9.386;2023-04-27T07:26:18;7.90;;;3.92;;
44850;SDS011;30583;48.714;9.386;2023-04-27T07:28:43;10.25;;;3.85;;
44850;SDS011;30583;48.714;9.386;2023-04-27T07:31:11;10.10;;;4.10;;
44850;SDS011;30583;48.714;9.386;2023-04-27T07:33:36;9.07;;;4.38;;
44850;SDS011;30583;48.714;9.386;2023-04-27T07:36:02;9.48;;;3.90;;
44850;SDS011;30583;48.714;9.386;2023-04-27T07:38:29;9.70;;;3.95;;
44850;SDS011;30583;48.714;9.386;2023-04-27T07:40:57;10.95;;;4.13;;
44850;SDS011;30583;48.714;9.386;2023-04-27T07:43:22;9.15;;;4.45;;
44850;SDS011;30583;48.714;9.386;2023-04-27T07:45:49;6.53;;;3.85;;
44850;SDS011;30583;48.714;9.386;2023-04-27T07:48:15;8.05;;;4.38;;
44850;SDS011;30583;48.714;9.386;2023-04-27T07:50:41;9.48;;;4.07;;
44850;SDS011;30583;48.714;9.386;2023-04-27T07:53:06;8.65;;;3.58;;
44850;SDS011;30583;48.714;9.386;2023-04-27T07:55:32;12.27;;;4.18;;
44850;SDS011;30583;48.714;9.386;2023-04-27T07:57:58;7.88;;;3.85;;
44850;SDS011;30583;48.714;9.386;2023-04-27T08:00:23;8.07;;;3.60;;
44850;SDS011;30583;48.714;9.386;2023-04-27T08:02:51;9.20;;;4.13;;
44850;SDS011;30583;48.714;9.386;2023-04-27T08:05:17;13.15;;;3.20;;
44850;SDS011;30583;48.714;9.386;2023-04-27T08:07:43;8.18;;;4.13;;
44850;SDS011;30583;48.714;9.386;2023-04-27T08:10:09;12.65;;;3.67;;
44850;SDS011;30583;48.714;9.386;2023-04-27T08:12:34;8.38;;;4.28;;
44850;SDS011;30583;48.714;9.386;2023-04-27T08:15:00;9.10;;;4.55;;
44850;SDS011;30583;48.714;9.386;2023-04-27T08:17:26;11.02;;;4.90;;
44850;SDS011;30583;48.714;9.386;2023-04-27T08:19:51;9.45;;;4.25;;
44850;SDS011;30583;48.714;9.386;2023-04-27T08:22:17;7.05;;;3.75;;
44850;SDS011;30583;48.714;9.386;2023-04-27T08:24:43;10.60;;;5.50;;
44850;SDS011;30583;48.714;9.386;2023-04-27T08:27:08;9.63;;;4.10;;
44850;SDS011;30583;48.714;9.386;2023-04-27T08:29:34;8.82;;;3.90;;
44850;SDS011;30583;48.714;9.386;2023-04-27T08:32:01;8.30;;;3.58;;
44850;SDS011;30583;48.714;9.386;2023-04-27T08:34:28;9.45;;;3.92;;
44850;SDS011;30583;48.714;9.386;2023-04-27T08:36:54;8.32;;;4.28;;
44850;SDS011;30583;48.714;9.386;2023-04-27T08:39:21;12.77;;;8.43;;
44850;SDS011;30583;48.714;9.386;2023-04-27T08:41:47;8.55;;;5.90;;
44850;SDS011;30583;48.714;9.386;2023-04-27T08:44:13;13.63;;;6.25;;
44850;SDS011;30583;48.714;9.386;2023-04-27T08:46:38;13.75;;;4.78;;
44850;SDS011;30583;48.714;9.386;2023-04-27T08:49:04;12.43;;;6.85;;
44850;SDS011;30583;48.714;9.386;2023-04-27T08:51:31;9.32;;;4.30;;
44850;SDS011;30583;48.714;9.386;2023-04-27T08:53:57;6.18;;;4.13;;
44850;SDS011;30583;48.714;9.386;2023-04-27T08:56:23;7.85;;;4.00;;
44850;SDS011;30583;48.714;9.386;2023-04-27T08:58:52;11.50;;;4.50;;
44850;SDS011;30583;48.714;9.386;2023-04-27T09:01:18;7.45;;;3.47;;
44850;SDS011;30583;48.714;9.386;2023-04-27T09:03:44;7.45;;;3.47;;
44850;SDS011;30583;48.714;9.386;2023-04-27T09:06:10;7.65;;;3.42;;
44850;SDS011;30583;48.714;9.386;2023-04-27T09:11:05;8.80;;;3.60;;
44850;SDS011;30583;48.714;9.386;2023-04-27T09:13:37;9.73;;;3.90;;
44850;SDS011;30583;48.714;9.386;2023-04-27T09:16:04;7.30;;;3.33;;
44850;SDS011;30583;48.714;9.386;2023-04-27T09:18:31;8.18;;;3.60;;
44850;SDS011;30583;48.714;9.386;2023-04-27T09:21:00;9.23;;;3.20;;
44850;SDS011;30583;48.714;9.386;2023-04-27T09:26:04;4.82;;;2.70;;
44850;SDS011;30583;48.714;9.386;2023-04-27T09:28:34;4.93;;;2.50;;
44850;SDS011;30583;48.714;9.386;2023-04-27T09:31:02;6.35;;;3.03;;
44850;SDS011;30583;48.714;9.386;2023-04-27T09:33:32;6.43;;;2.75;;
44850;SDS011;30583;48.714;9.386;2023-04-27T09:36:04;6.78;;;3.05;;
44850;SDS011;30583;48.714;9.386;2023-04-27T09:38:31;6.22;;;2.97;;
44850;SDS011;30583;48.714;9.386;2023-04-27T09:40:58;6.70;;;3.20;;
44850;SDS011;30583;48.714;9.386;2023-04-27T09:43:24;8.80;;;2.95;;
44850;SDS011;30583;48.714;9.386;2023-04-27T09:45:52;7.57;;;3.25;;
44850;SDS011;30583;48.714;9.386;2023-04-27T09:48:20;7.68;;;3.17;;
44850;SDS011;30583;48.714;9.386;2023-04-27T09:50:46;6.80;;;3.25;;
44850;SDS011;30583;48.714;9.386;2023-04-27T09:53:14;11.23;;;3.97;;
44850;SDS011;30583;48.714;9.386;2023-04-27T09:55:47;10.73;;;4.93;;
44850;SDS011;30583;48.714;9.386;2023-04-27T10:01:16;10.20;;;6.68;;
44850;SDS011;30583;48.714;9.386;2023-04-27T10:07:08;12.70;;;5.40;;
44850;SDS011;30583;48.714;9.386;2023-04-27T10:12:13;10.00;;;3.03;;
44850;SDS011;30583;48.714;9.386;2023-04-27T10:14:55;7.75;;;3.22;;
44850;SDS011;30583;48.714;9.386;2023-04-27T10:17:32;6.93;;;2.85;;
44850;SDS011;30583;48.714;9.386;2023-04-27T10:20:00;11.77;;;2.90;;
44850;SDS011;30583;48.714;9.386;2023-04-27T10:22:37;7.45;;;3.17;;
44850;SDS011;30583;48.714;9.386;2023-04-27T10:25:14;7.78;;;2.70;;
44850;SDS011;30583;48.714;9.386;2023-04-27T10:27:40;5.50;;;2.63;;
44850;SDS011;30583;48.714;9.386;2023-04-27T10:30:10;6.28;;;2.88;;
44850;SDS011;30583;48.714;9.386;2023-04-27T10:32:36;9.38;;;3.47;;
44850;SDS011;30583;48.714;9.386;2023-04-27T10:35:07;9.25;;;3.28;;
44850;SDS011;30583;48.714;9.386;2023-04-27T10:37:40;8.50;;;4.13;;
44850;SDS011;30583;48.714;9.386;2023-04-27T10:40:10;5.90;;;3.63;;
44850;SDS011;30583;48.714;9.386;2023-04-27T10:42:44;8.32;;;3.80;;
44850;SDS011;30583;48.714;9.386;2023-04-27T10:45:10;8.68;;;3.72;;
44850;SDS011;30583;48.714;9.386;2023-04-27T10:50:07;6.28;;;3.30;;
44850;SDS011;30583;48.714;9.386;2023-04-27T10:52:37;9.88;;;4.25;;
44850;SDS011;30583;48.714;9.386;2023-04-27T10:57:47;5.25;;;2.90;;
44850;SDS011;30583;48.714;9.386;2023-04-27T11:00:14;8.48;;;3.30;;
44850;SDS011;30583;48.714;9.386;2023-04-27T11:02:55;11.48;;;3.92;;
44850;SDS011;30583;48.714;9.386;2023-04-27T11:05:25;7.20;;;2.65;;
44850;SDS011;30583;48.714;9.386;2023-04-27T11:08:30;11.32;;;2.67;;
44850;SDS011;30583;48.714;9.386;2023-04-27T11:10:49;3.53;;;2.00;;
44850;SDS011;30583;48.714;9.386;2023-04-27T11:13:17;6.60;;;2.78;;
44850;SDS011;30583;48.714;9.386;2023-04-27T11:15:44;8.93;;;3.05;;
44850;SDS011;30583;48.714;9.386;2023-04-27T11:18:22;7.63;;;2.67;;
44850;SDS011;30583;48.714;9.386;2023-04-27T11:20:50;9.10;;;3.20;;
44850;SDS011;30583;48.714;9.386;2023-04-27T11:23:27;9.10;;;3.70;;
44850;SDS011;30583;48.714;9.386;2023-04-27T11:25:55;5.65;;;3.15;;
44850;SDS011;30583;48.714;9.386;2023-04-27T11:28:21;6.25;;;3.08;;
44850;SDS011;30583;48.714;9.386;2023-04-27T11:30:54;7.78;;;3.65;;
44850;SDS011;30583;48.714;9.386;2023-04-27T11:33:20;7.13;;;3.00;;
44850;SDS011;30583;48.714;9.386;2023-04-27T11:35:46;5.45;;;2.70;;
44850;SDS011;30583;48.714;9.386;2023-04-27T11:38:15;9.00;;;3.85;;
44850;SDS011;30583;48.714;9.386;2023-04-27T11:40:43;7.63;;;3.15;;
44850;SDS011;30583;48.714;9.386;2023-04-27T11:43:11;7.18;;;3.10;;
44850;SDS011;30583;48.714;9.386;2023-04-27T11:45:42;7.22;;;3.50;;
44850;SDS011;30583;48.714;9.386;2023-04-27T11:48:15;6.18;;;3.13;;
44850;SDS011;30583;48.714;9.386;2023-04-27T11:50:42;9.23;;;3.50;;
44850;SDS011;30583;48.714;9.386;2023-04-27T11:53:12;6.38;;;2.92;;
44850;SDS011;30583;48.714;9.386;2023-04-27T11:55:37;5.50;;;3.05;;
44850;SDS011;30583;48.714;9.386;2023-04-27T11:58:05;10.30;;;3.53;;
44850;SDS011;30583;48.714;9.386;2023-04-27T12:00:31;10.38;;;3.72;;
44850;SDS011;30583;48.714;9.386;2023-04-27T12:02:57;6.22;;;3.53;;
44850;SDS011;30583;48.714;9.386;2023-04-27T12:05:23;5.97;;;3.22;;
44850;SDS011;30583;48.714;9.386;2023-04-27T12:07:48;8.57;;;3.65;;
44850;SDS011;30583;48.714;9.386;2023-04-27T12:10:14;7.40;;;3.10;;
44850;SDS011;30583;48.714;9.386;2023-04-27T12:12:40;6.78;;;3.67;;
44850;SDS011;30583;48.714;9.386;2023-04-27T12:15:06;8.07;;;3.90;;
44850;SDS011;30583;48.714;9.386;2023-04-27T12:17:33;6.25;;;3.30;;
44850;SDS011;30583;48.714;9.386;2023-04-27T12:19:58;7.53;;;3.45;;
44850;SDS011;30583;48.714;9.386;2023-04-27T12:22:24;7.15;;;3.28;;
44850;SDS011;30583;48.714;9.386;2023-04-27T12:24:49;8.73;;;3.60;;
44850;SDS011;30583;48.714;9.386;2023-04-27T12:27:15;7.65;;;3.33;;
44850;SDS011;30583;48.714;9.386;2023-04-27T12:29:41;7.53;;;3.50;;
44850;SDS011;30583;48.714;9.386;2023-04-27T12:32:06;7.72;;;3.25;;
44850;SDS011;30583;48.714;9.386;2023-04-27T12:34:33;5.93;;;3.13;;
44850;SDS011;30583;48.714;9.386;2023-04-27T12:36:59;7.50;;;3.03;;
44850;SDS011;30583;48.714;9.386;2023-04-27T12:39:25;6.78;;;2.90;;
44850;SDS011;30583;48.714;9.386;2023-04-27T12:41:51;7.75;;;3.40;;
44850;SDS011;30583;48.714;9.386;2023-04-27T12:44:17;7.40;;;3.42;;
44850;SDS011;30583;48.714;9.386;2023-04-27T12:46:44;7.65;;;3.33;;
44850;SDS011;30583;48.714;9.386;2023-04-27T12:49:10;6.80;;;3.10;;
44850;SDS011;30583;48.714;9.386;2023-04-27T12:51:39;6.57;;;2.92;;
44850;SDS011;30583;48.714;9.386;2023-04-27T12:54:05;6.85;;;2.60;;
44850;SDS011;30583;48.714;9.386;2023-04-27T12:56:32;6.03;;;3.55;;
44850;SDS011;30583;48.714;9.386;2023-04-27T12:58:58;6.45;;;2.97;;
44850;SDS011;30583;48.714;9.386;2023-04-27T13:01:27;5.40;;;3.33;;
44850;SDS011;30583;48.714;9.386;2023-04-27T13:03:57;7.78;;;4.20;;
44850;SDS011;30583;48.714;9.386;2023-04-27T13:06:25;9.00;;;3.65;;
44850;SDS011;30583;48.714;9.386;2023-04-27T13:08:51;8.13;;;3.75;;
44850;SDS011;30583;48.714;9.386;2023-04-27T13:11:17;9.80;;;3.95;;
44850;SDS011;30583;48.714;9.386;2023-04-27T13:13:43;8.32;;;3.42;;
44850;SDS011;30583;48.714;9.386;2023-04-27T13:16:09;6.43;;;3.33;;
44850;SDS011;30583;48.714;9.386;2023-04-27T13:18:36;9.30;;;3.55;;
44850;SDS011;30583;48.714;9.386;2023-04-27T13:21:02;7.88;;;4.43;;
44850;SDS011;30583;48.714;9.386;2023-04-27T13:23:29;10.88;;;4.63;;
44850;SDS011;30583;48.714;9.386;2023-04-27T13:25:55;5.60;;;3.60;;
44850;SDS011;30583;48.714;9.386;2023-04-27T13:28:21;8.88;;;4.00;;
44850;SDS011;30583;48.714;9.386;2023-04-27T13:30:46;9.18;;;3.95;;
44850;SDS011;30583;48.714;9.386;2023-04-27T13:33:12;6.97;;;3.50;;
44850;SDS011;30583;48.714;9.386;2023-04-27T13:35:39;6.05;;;3.70;;
44850;SDS011;30583;48.714;9.386;2023-04-27T13:38:04;8.45;;;3.17;;
44850;SDS011;30583;48.714;9.386;2023-04-27T13:40:30;7.60;;;3.85;;
44850;SDS011;30583;48.714;9.386;2023-04-27T13:42:56;5.45;;;3.00;;
44850;SDS011;30583;48.714;9.386;2023-04-27T13:45:21;5.85;;;3.30;;
44850;SDS011;30583;48.714;9.386;2023-04-27T13:47:47;6.20;;;3.75;;
44850;SDS011;30583;48.714;9.386;2023-04-27T13:50:12;8.45;;;3.50;;
44850;SDS011;30583;48.714;9.386;2023-04-27T13:52:38;6.18;;;3.25;;
44850;SDS011;30583;48.714;9.386;2023-04-27T13:55:04;7.55;;;3.58;;
44850;SDS011;30583;48.714;9.386;2023-04-27T13:57:31;10.68;;;4.30;;
44850;SDS011;30583;48.714;9.386;2023-04-27T13:59:57;9.50;;;4.00;;
44850;SDS011;30583;48.714;9.386;2023-04-27T14:02:29;9.32;;;4.80;;
44850;SDS011;30583;48.714;9.386;2023-04-27T14:04:55;7.03;;;3.80;;
44850;SDS011;30583;48.714;9.386;2023-04-27T14:07:20;6.03;;;4.50;;
44850;SDS011;30583;48.714;9.386;2023-04-27T14:09:47;6.53;;;3.03;;
44850;SDS011;30583;48.714;9.386;2023-04-27T14:12:12;6.38;;;3.40;;
44850;SDS011;30583;48.714;9.386;2023-04-27T14:14:38;6.70;;;3.30;;
44850;SDS011;30583;48.714;9.386;2023-04-27T14:17:04;6.63;;;3.35;;
44850;SDS011;30583;48.714;9.386;2023-04-27T14:19:30;7.00;;;3.00;;
44850;SDS011;30583;48.714;9.386;2023-04-27T14:21:56;7.55;;;3.50;;
44850;SDS011;30583;48.714;9.386;2023-04-27T14:24:23;6.93;;;2.40;;
44850;SDS011;30583;48.714;9.386;2023-04-27T14:26:48;5.88;;;2.63;;
44850;SDS011;30583;48.714;9.386;2023-04-27T14:29:15;5.60;;;2.70;;
44850;SDS011;30583;48.714;9.386;2023-04-27T14:31:41;5.65;;;2.65;;
44850;SDS011;30583;48.714;9.386;2023-04-27T14:34:07;5.22;;;2.70;;
44850;SDS011;30583;48.714;9.386;2023-04-27T14:36:33;7.85;;;2.50;;
44850;SDS011;30583;48.714;9.386;2023-04-27T14:38:59;6.93;;;2.65;;
44850;SDS011;30583;48.714;9.386;2023-04-27T14:41:25;5.47;;;2.53;;
44850;SDS011;30583;48.714;9.386;2023-04-27T14:43:51;7.85;;;2.60;;
44850;SDS011;30583;48.714;9.386;2023-04-27T14:46:17;5.72;;;3.00;;
44850;SDS011;30583;48.714;9.386;2023-04-27T14:48:44;5.03;;;2.35;;
44850;SDS011;30583;48.714;9.386;2023-04-27T14:51:10;5.78;;;1.98;;
44850;SDS011;30583;48.714;9.386;2023-04-27T14:53:37;7.72;;;2.40;;
44850;SDS011;30583;48.714;9.386;2023-04-27T14:56:02;4.18;;;2.45;;
44850;SDS011;30583;48.714;9.386;2023-04-27T14:58:28;6.28;;;2.42;;
44850;SDS011;30583;48.714;9.386;2023-04-27T15:00:56;5.25;;;3.30;;